createdAt,value
2023-01-25T00:01:36.670Z,5.71
2023-01-25T00:04:09.091Z,5.71
2023-01-25T00:06:41.773Z,5.72
2023-01-25T00:09:15.551Z,5.73
2023-01-25T00:11:48.427Z,5.74
2023-01-25T00:14:20.953Z,5.75
2023-01-25T00:16:53.848Z,5.75
2023-01-25T00:19:26.276Z,5.75
2023-01-25T00:22:00.884Z,5.76
2023-01-25T00:24:31.691Z,5.77
2023-01-25T00:27:04.784Z,5.77
2023-01-25T00:29:37.467Z,5.76
2023-01-25T00:32:34.536Z,5.73
2023-01-25T00:35:10.391Z,5.73
2023-01-25T00:37:49.966Z,5.75
2023-01-25T00:40:23.573Z,5.78
2023-01-25T00:42:56.494Z,5.63
2023-01-25T00:45:29.762Z,5.74
2023-01-25T00:48:02.492Z,5.80
2023-01-25T00:50:37.791Z,5.70
2023-01-25T00:53:11.056Z,5.83
2023-01-25T00:55:43.448Z,5.79
2023-01-25T00:58:15.980Z,5.77
2023-01-25T01:00:48.521Z,5.86
2023-01-25T01:03:21.649Z,5.83
2023-01-25T01:06:02.895Z,5.72
2023-01-25T01:08:37.705Z,5.68
2023-01-25T01:11:09.997Z,5.64
2023-01-25T01:13:42.942Z,5.64
2023-01-25T01:16:16.357Z,5.64
2023-01-25T01:18:51.170Z,5.66
2023-01-25T01:21:24.083Z,5.67
2023-01-25T01:23:57.135Z,5.67
2023-01-25T01:26:29.702Z,5.71
2023-01-25T01:29:02.389Z,5.70
2023-01-25T01:31:35.149Z,5.67
2023-01-25T01:34:16.518Z,5.65
2023-01-25T01:36:49.163Z,5.65
2023-01-25T01:39:22.005Z,5.63
2023-01-25T01:41:54.434Z,5.61
2023-01-25T01:44:45.885Z,5.64
2023-01-25T01:47:23.130Z,5.65
2023-01-25T01:50:01.174Z,5.64
2023-01-25T01:52:38.342Z,5.67
2023-01-25T01:55:15.148Z,5.68
2023-01-25T01:57:52.837Z,5.69
2023-01-25T02:00:28.280Z,5.69
2023-01-25T02:03:02.531Z,5.58
2023-01-25T02:05:45.369Z,5.68
2023-01-25T02:08:18.465Z,5.59
2023-01-25T02:10:52.269Z,5.69
2023-01-25T02:13:25.148Z,5.70
2023-01-25T02:15:58.101Z,5.72
2023-01-25T02:18:31.531Z,5.70
2023-01-25T02:21:05.050Z,5.71
2023-01-25T02:23:48.639Z,5.72
2023-01-25T02:26:23.380Z,5.72
2023-01-25T02:29:02.174Z,5.70
2023-01-25T02:31:34.954Z,5.70
2023-01-25T02:34:07.914Z,5.67
2023-01-25T02:36:40.694Z,5.67
2023-01-25T02:39:20.094Z,5.56
2023-01-25T02:41:52.856Z,5.67
2023-01-25T02:44:27.976Z,5.66
2023-01-25T02:47:02.030Z,5.65
2023-01-25T02:49:38.284Z,5.56
2023-01-25T02:52:13.275Z,5.66
2023-01-25T02:54:45.803Z,5.66
2023-01-25T02:57:18.727Z,5.66
2023-01-25T02:59:51.148Z,5.66
2023-01-25T03:02:24.191Z,5.67
2023-01-25T03:04:57.599Z,5.67
2023-01-25T03:07:30.348Z,5.68
2023-01-25T03:10:03.380Z,5.67
2023-01-25T03:12:35.889Z,5.67
2023-01-25T03:15:11.275Z,5.68
2023-01-25T03:17:43.759Z,5.68
2023-01-25T03:20:17.640Z,5.66
2023-01-25T03:22:50.849Z,5.67
2023-01-25T03:25:23.618Z,5.67
2023-01-25T03:28:04.540Z,5.64
2023-01-25T03:30:37.036Z,5.65
2023-01-25T03:33:10.347Z,5.63
2023-01-25T03:35:43.046Z,5.62
2023-01-25T03:38:16.425Z,5.63
2023-01-25T03:40:49.811Z,5.64
2023-01-25T03:43:22.475Z,5.65
2023-01-25T03:46:01.684Z,5.64
2023-01-25T03:48:35.155Z,5.52
2023-01-25T03:51:07.856Z,5.62
2023-01-25T03:53:41.887Z,5.58
2023-01-25T03:56:20.597Z,5.59
2023-01-25T03:59:16.402Z,5.62
2023-01-25T04:01:51.959Z,5.62
2023-01-25T04:04:24.849Z,5.63
2023-01-25T04:06:58.926Z,5.61
2023-01-25T04:09:31.628Z,5.61
2023-01-25T04:12:05.711Z,5.61
2023-01-25T04:14:44.566Z,5.61
2023-01-25T04:17:21.775Z,5.61
2023-01-25T04:19:58.108Z,5.57
2023-01-25T04:22:33.152Z,5.58
2023-01-25T04:25:06.306Z,5.60
2023-01-25T04:27:39.014Z,5.57
2023-01-25T04:30:16.307Z,5.59
2023-01-25T04:32:49.969Z,5.60
2023-01-25T04:35:34.890Z,5.54
2023-01-25T04:38:07.923Z,5.53
2023-01-25T04:40:44.858Z,5.57
2023-01-25T04:43:21.057Z,5.58
2023-01-25T04:45:55.566Z,5.50
2023-01-25T04:48:33.835Z,5.56
2023-01-25T04:51:09.553Z,5.59
2023-01-25T04:53:42.117Z,5.56
2023-01-25T04:56:15.643Z,5.52
2023-01-25T04:58:58.493Z,5.45
2023-01-25T05:01:34.555Z,5.39
2023-01-25T05:04:09.130Z,5.34
2023-01-25T05:06:45.023Z,5.41
2023-01-25T05:09:18.508Z,5.43
2023-01-25T05:11:51.456Z,5.47
2023-01-25T05:14:29.581Z,5.48
2023-01-25T05:17:03.464Z,5.50
2023-01-25T05:19:36.860Z,5.51
2023-01-25T05:22:15.897Z,5.50
2023-01-25T05:24:52.258Z,5.48
2023-01-25T05:27:25.169Z,5.50
2023-01-25T05:30:00.460Z,5.51
2023-01-25T05:32:59.436Z,5.47
2023-01-25T05:35:31.989Z,5.52
2023-01-25T05:38:04.795Z,5.51
2023-01-25T05:40:37.269Z,5.49
2023-01-25T05:43:09.855Z,5.46
2023-01-25T05:45:42.302Z,5.18
2023-01-25T05:48:16.275Z,5.42
2023-01-25T05:50:48.828Z,5.43
2023-01-25T05:53:29.735Z,5.42
2023-01-25T05:56:08.542Z,5.42
2023-01-25T05:58:41.365Z,5.38
2023-01-25T06:01:13.769Z,5.43
2023-01-25T06:03:51.507Z,5.42
2023-01-25T06:06:24.605Z,5.41
2023-01-25T06:08:58.294Z,5.38
2023-01-25T06:11:31.275Z,5.38
2023-01-25T06:14:05.763Z,5.56
2023-01-25T06:16:38.812Z,5.50
2023-01-25T06:19:31.060Z,5.42
2023-01-25T06:22:27.736Z,5.45
2023-01-25T06:25:00.251Z,5.24
2023-01-25T06:27:32.856Z,5.39
2023-01-25T06:30:06.581Z,5.41
2023-01-25T06:32:40.422Z,5.36
2023-01-25T06:35:13.342Z,5.33
2023-01-25T06:38:04.908Z,5.34
2023-01-25T06:40:37.524Z,5.21
2023-01-25T06:43:11.220Z,5.25
2023-01-25T06:45:44.095Z,5.28
2023-01-25T06:48:17.357Z,5.34
2023-01-25T06:50:56.823Z,5.39
2023-01-25T06:53:31.519Z,5.38
2023-01-25T06:56:06.063Z,5.36
2023-01-25T06:58:38.736Z,5.41
2023-01-25T07:01:16.230Z,5.41
2023-01-25T07:03:52.568Z,5.38
2023-01-25T07:06:25.984Z,5.39
2023-01-25T07:09:02.719Z,5.41
2023-01-25T07:11:35.294Z,5.44
2023-01-25T07:14:08.234Z,5.49
2023-01-25T07:16:40.855Z,5.38
2023-01-25T07:19:14.617Z,5.34
2023-01-25T07:21:47.415Z,5.34
2023-01-25T07:24:21.105Z,5.41
2023-01-25T07:26:53.593Z,5.35
2023-01-25T07:29:26.977Z,5.39
2023-01-25T07:32:00.068Z,5.34
2023-01-25T07:34:32.945Z,5.31
2023-01-25T07:37:05.549Z,5.39
2023-01-25T07:39:38.633Z,5.56
2023-01-25T07:42:11.363Z,5.57
2023-01-25T07:44:43.864Z,5.48
2023-01-25T07:47:18.673Z,5.55
2023-01-25T07:49:51.220Z,5.48
2023-01-25T07:52:23.616Z,5.46
2023-01-25T07:54:55.899Z,5.44
2023-01-25T07:57:28.853Z,5.40
2023-01-25T08:00:01.893Z,5.43
2023-01-25T08:02:45.559Z,5.39
2023-01-25T08:05:18.465Z,5.43
2023-01-25T08:07:51.263Z,5.39
2023-01-25T08:10:23.684Z,5.42
2023-01-25T08:12:56.109Z,5.41
2023-01-25T08:15:28.614Z,5.36
2023-01-25T08:18:03.662Z,5.44
2023-01-25T08:20:37.768Z,5.41
2023-01-25T08:23:10.190Z,5.43
2023-01-25T08:25:42.795Z,5.44
2023-01-25T08:28:15.448Z,5.42
2023-01-25T08:30:56.806Z,5.32
2023-01-25T08:33:30.418Z,5.33
2023-01-25T08:36:02.833Z,5.37
2023-01-25T08:38:36.011Z,5.26
2023-01-25T08:41:12.931Z,5.28
2023-01-25T08:43:46.052Z,5.35
2023-01-25T08:46:19.420Z,5.28
2023-01-25T08:48:54.474Z,5.33
2023-01-25T08:51:28.538Z,5.46
2023-01-25T08:54:05.532Z,5.46
2023-01-25T08:56:39.416Z,5.44
2023-01-25T08:59:14.346Z,5.37
2023-01-25T09:01:46.820Z,5.42
2023-01-25T09:04:19.681Z,5.37
2023-01-25T09:06:51.957Z,5.34
2023-01-25T09:09:25.075Z,5.49
2023-01-25T09:11:57.639Z,5.48
2023-01-25T09:14:30.332Z,5.34
2023-01-25T09:17:02.796Z,5.34
2023-01-25T09:19:35.470Z,5.40
2023-01-25T09:22:07.829Z,5.33
2023-01-25T09:24:40.281Z,5.23
2023-01-25T09:27:12.680Z,5.32
2023-01-25T09:30:00.042Z,5.31
2023-01-25T09:32:34.257Z,5.09
2023-01-25T09:35:07.964Z,5.19
2023-01-25T09:37:40.437Z,5.32
2023-01-25T09:40:22.380Z,5.38
2023-01-25T09:43:01.866Z,5.33
2023-01-25T09:45:38.301Z,5.28
2023-01-25T09:48:22.517Z,5.41
2023-01-25T09:51:12.094Z,5.44
2023-01-25T09:53:51.706Z,5.51
2023-01-25T09:56:26.717Z,5.60
2023-01-25T09:59:04.077Z,5.59
2023-01-25T10:01:45.917Z,5.54
2023-01-25T10:04:22.606Z,5.40
2023-01-25T10:07:01.541Z,5.43
2023-01-25T10:09:42.713Z,5.48
2023-01-25T10:12:21.440Z,5.40
2023-01-25T10:14:54.043Z,5.46
2023-01-25T10:31:53.924Z,5.42
2023-01-25T10:34:34.101Z,5.39
2023-01-25T10:37:18.279Z,5.39
2023-01-25T10:39:57.786Z,5.40
2023-01-25T10:42:34.950Z,5.40
2023-01-25T10:45:13.881Z,5.34
2023-01-25T10:47:51.853Z,5.37
2023-01-25T10:50:46.547Z,5.39
2023-01-25T10:53:27.923Z,5.42
2023-01-25T10:56:04.993Z,5.41
2023-01-25T10:58:40.165Z,5.34
2023-01-25T11:01:25.708Z,5.51
2023-01-25T11:03:58.592Z,5.51
2023-01-25T11:06:39.778Z,5.34
2023-01-25T11:12:22.193Z,5.23
2023-01-25T11:14:54.665Z,5.28
2023-01-25T11:17:30.336Z,5.23
2023-01-25T11:20:24.365Z,5.26
2023-01-25T11:22:58.697Z,5.48
2023-01-25T11:25:33.618Z,5.43
2023-01-25T11:28:20.559Z,5.42
2023-01-25T11:30:54.279Z,5.33
2023-01-25T11:33:30.434Z,5.42
2023-01-25T11:36:21.225Z,5.38
2023-01-25T11:39:18.115Z,5.49
2023-01-25T11:42:03.103Z,5.40
2023-01-25T11:45:03.411Z,5.44
2023-01-25T11:47:49.711Z,5.62
2023-01-25T11:50:29.294Z,5.64
2023-01-25T11:53:24.083Z,5.59
2023-01-25T11:56:06.081Z,5.59
2023-01-25T11:59:00.852Z,5.41
2023-01-25T12:01:40.546Z,5.44
2023-01-25T12:04:36.877Z,5.42
2023-01-25T12:07:16.319Z,5.52
2023-01-25T12:10:01.799Z,5.57
2023-01-25T12:12:45.977Z,5.63
2023-01-25T12:15:42.519Z,5.69
2023-01-25T12:18:56.574Z,5.75
2023-01-25T12:21:44.650Z,5.63
2023-01-25T12:24:36.613Z,5.78
2023-01-25T12:27:25.758Z,5.67
2023-01-25T12:30:04.547Z,5.62
2023-01-25T12:32:45.602Z,5.55
2023-01-25T12:35:29.766Z,5.60
2023-01-25T12:38:06.239Z,5.53
2023-01-25T12:40:52.982Z,5.61
2023-01-25T12:43:31.557Z,5.54
2023-01-25T12:46:10.701Z,5.58
2023-01-25T12:48:48.630Z,5.46
2023-01-25T12:51:24.213Z,5.37
2023-01-25T12:53:59.439Z,5.58
2023-01-25T12:56:44.053Z,5.71
2023-01-25T12:59:25.063Z,5.57
2023-01-25T13:02:03.996Z,5.48
2023-01-25T13:04:54.413Z,5.48
2023-01-25T13:07:32.219Z,5.51
2023-01-25T13:10:15.082Z,5.58
2023-01-25T13:13:00.689Z,5.59
2023-01-25T13:15:42.079Z,5.48
2023-01-25T13:18:40.592Z,5.56
2023-01-25T13:21:34.693Z,5.62
2023-01-25T13:24:20.333Z,5.58
2023-01-25T13:27:24.507Z,5.60
2023-01-25T13:30:01.698Z,5.53
2023-01-25T13:33:14.641Z,5.48
2023-01-25T13:35:47.406Z,5.56
2023-01-25T13:38:30.970Z,5.59
2023-01-25T13:41:12.184Z,5.58
2023-01-25T13:43:56.904Z,5.56
2023-01-25T13:46:29.766Z,5.65
2023-01-25T13:49:08.553Z,5.58
2023-01-25T13:51:43.183Z,5.46
2023-01-25T13:54:19.621Z,5.31
2023-01-25T13:57:06.261Z,5.34
2023-01-25T13:59:38.695Z,5.36
2023-01-25T14:02:20.039Z,5.29
2023-01-25T14:04:54.180Z,5.01
2023-01-25T14:07:33.114Z,5.24
2023-01-25T14:10:10.556Z,5.34
2023-01-25T14:12:45.033Z,5.49
2023-01-25T14:15:26.322Z,5.47
2023-01-25T14:18:17.010Z,5.43
2023-01-25T14:20:50.911Z,5.41
2023-01-25T14:23:28.567Z,5.52
2023-01-25T14:26:02.236Z,5.53
2023-01-25T14:28:34.817Z,5.57
2023-01-25T14:31:24.876Z,5.60
2023-01-25T14:33:58.985Z,5.61
2023-01-25T14:36:34.508Z,5.53
2023-01-25T14:39:18.594Z,5.50
2023-01-25T14:42:00.893Z,5.56
2023-01-25T14:44:36.244Z,5.68
2023-01-25T14:47:23.682Z,5.71
2023-01-25T14:49:56.376Z,5.59
2023-01-25T14:52:30.635Z,5.67
2023-01-25T14:55:03.359Z,5.60
2023-01-25T14:57:40.876Z,5.60
2023-01-25T15:00:24.723Z,5.60
2023-01-25T15:02:59.202Z,5.62
2023-01-25T15:05:34.260Z,5.53
2023-01-25T15:08:32.824Z,5.65
2023-01-25T15:11:38.817Z,5.68
2023-01-25T15:14:20.281Z,5.68
2023-01-25T15:16:52.719Z,5.64
2023-01-25T15:19:27.758Z,5.54
2023-01-25T15:22:01.654Z,5.54
2023-01-25T15:24:35.911Z,5.49
2023-01-25T15:27:12.835Z,5.55
2023-01-25T15:29:45.199Z,5.55
2023-01-25T15:32:22.771Z,5.61
2023-01-25T15:34:56.748Z,5.64
2023-01-25T15:37:29.202Z,5.56
2023-01-25T15:40:01.797Z,5.55
2023-01-25T15:42:34.529Z,5.70
2023-01-25T15:45:10.253Z,5.62
2023-01-25T15:47:43.047Z,5.55
2023-01-25T15:50:20.703Z,5.51
2023-01-25T15:52:57.251Z,5.61
2023-01-25T15:55:33.353Z,5.64
2023-01-25T15:58:11.427Z,5.57
2023-01-25T16:00:44.875Z,5.53
2023-01-25T16:03:18.172Z,5.43
2023-01-25T16:05:52.186Z,5.59
2023-01-25T16:08:24.584Z,5.59
2023-01-25T16:10:57.499Z,5.56
2023-01-25T16:13:31.683Z,5.56
2023-01-25T16:16:20.760Z,5.59
2023-01-25T16:19:02.436Z,5.63
2023-01-25T16:21:37.980Z,5.68
2023-01-25T16:24:13.803Z,5.70
2023-01-25T16:26:51.183Z,5.63
2023-01-25T16:29:23.978Z,5.62
2023-01-25T16:31:56.816Z,5.61
2023-01-25T16:34:29.462Z,5.58
2023-01-25T16:37:03.256Z,5.57
2023-01-25T16:39:35.867Z,5.59
2023-01-25T16:42:10.335Z,5.64
2023-01-25T16:44:42.774Z,5.66
2023-01-25T16:47:17.782Z,5.74
2023-01-25T16:49:50.265Z,5.79
2023-01-25T16:52:24.967Z,5.72
2023-01-25T16:54:59.572Z,5.60
2023-01-25T16:57:34.702Z,5.58
2023-01-25T17:00:10.854Z,5.56
2023-01-25T17:02:58.299Z,5.57
2023-01-25T17:05:50.925Z,5.57
2023-01-25T17:08:40.445Z,5.53
2023-01-25T17:11:13.320Z,5.54
2023-01-25T17:13:48.385Z,5.56
2023-01-25T17:16:22.052Z,5.58
2023-01-25T17:19:00.131Z,5.58
2023-01-25T17:21:37.167Z,5.62
2023-01-25T17:24:29.175Z,5.69
2023-01-25T17:27:02.318Z,5.66
2023-01-25T17:29:35.638Z,5.61
2023-01-25T17:32:08.256Z,5.51
2023-01-25T17:35:00.361Z,5.64
2023-01-25T17:37:42.948Z,5.63
2023-01-25T17:40:18.628Z,5.66
2023-01-25T17:42:52.393Z,5.69
2023-01-25T17:45:25.114Z,5.71
2023-01-25T17:47:58.915Z,5.72
2023-01-25T17:50:31.471Z,5.71
2023-01-25T17:53:05.447Z,5.62
2023-01-25T17:55:39.361Z,5.74
2023-01-25T17:58:12.152Z,5.71
2023-01-25T18:00:44.852Z,5.74
2023-01-25T18:03:17.650Z,5.59
2023-01-25T18:05:51.086Z,5.74
2023-01-25T18:08:27.419Z,5.76
2023-01-25T18:11:08.952Z,5.76
2023-01-25T18:13:43.558Z,5.76
2023-01-25T18:16:18.764Z,5.73
2023-01-25T18:18:52.876Z,5.76
2023-01-25T18:21:30.230Z,5.75
2023-01-25T18:24:05.677Z,5.75
2023-01-25T18:26:41.009Z,5.75
2023-01-25T18:29:41.440Z,5.74
2023-01-25T18:32:14.591Z,5.76
2023-01-25T18:34:48.298Z,5.77
2023-01-25T18:37:29.597Z,5.79
2023-01-25T18:40:02.069Z,5.78
2023-01-25T18:42:35.478Z,5.78
2023-01-25T18:45:10.325Z,5.79
2023-01-25T18:47:43.373Z,5.81
2023-01-25T18:50:17.011Z,5.80
2023-01-25T18:52:49.774Z,5.80
2023-01-25T18:55:23.566Z,5.82
2023-01-25T18:57:57.595Z,5.80
2023-01-25T19:00:31.198Z,5.80
2023-01-25T19:03:04.642Z,5.79
2023-01-25T19:05:38.088Z,5.79
2023-01-25T19:08:10.856Z,5.81
2023-01-25T19:10:43.742Z,5.81
2023-01-25T19:13:17.080Z,5.80
2023-01-25T19:15:49.993Z,5.79
2023-01-25T19:18:23.054Z,5.78
2023-01-25T19:20:56.012Z,5.77
2023-01-25T19:23:33.283Z,5.77
2023-01-25T19:26:07.167Z,5.77
2023-01-25T19:28:40.387Z,5.77
2023-01-25T19:31:15.021Z,5.78
2023-01-25T19:33:48.750Z,5.78
2023-01-25T19:36:21.761Z,5.79
2023-01-25T19:38:55.437Z,5.79
2023-01-25T19:41:31.152Z,5.78
2023-01-25T19:44:04.817Z,5.78
2023-01-25T19:46:38.933Z,5.78
2023-01-25T19:49:15.161Z,5.78
2023-01-25T19:51:53.048Z,5.78
2023-01-25T19:54:27.191Z,5.79
2023-01-25T19:57:00.651Z,5.79
2023-01-25T19:59:35.163Z,5.80
2023-01-25T20:02:10.529Z,5.80
2023-01-25T20:04:44.798Z,5.81
2023-01-25T20:07:17.929Z,5.81
2023-01-25T20:09:52.200Z,5.82
2023-01-25T20:12:26.975Z,5.81
2023-01-25T20:14:58.575Z,5.82
2023-01-25T20:17:34.145Z,5.79
2023-01-25T20:20:08.697Z,5.81
2023-01-25T20:22:41.761Z,5.83
2023-01-25T20:25:14.733Z,5.81
2023-01-25T20:27:47.795Z,5.81
2023-01-25T20:30:22.005Z,5.82
2023-01-25T20:32:55.322Z,5.84
2023-01-25T20:35:28.691Z,5.84
2023-01-25T20:38:02.622Z,5.84
2023-01-25T20:40:35.947Z,5.83
2023-01-25T20:43:09.564Z,5.81
2023-01-25T20:45:42.698Z,5.81
2023-01-25T20:48:15.775Z,5.81
2023-01-25T20:50:49.025Z,5.82
2023-01-25T20:53:21.834Z,5.82
2023-01-25T20:56:00.090Z,5.71
2023-01-25T20:58:33.544Z,5.82
2023-01-25T21:01:11.394Z,5.81
2023-01-25T21:03:46.343Z,5.71
2023-01-25T21:06:20.314Z,5.71
2023-01-25T21:08:54.005Z,5.81
2023-01-25T21:11:27.203Z,5.81
2023-01-25T21:13:59.779Z,5.80
2023-01-25T21:16:34.356Z,5.82
2023-01-25T21:19:10.302Z,5.81
2023-01-25T21:21:45.131Z,5.81
2023-01-25T21:24:18.278Z,5.80
2023-01-25T21:26:51.797Z,5.79
2023-01-25T21:29:25.553Z,5.78
2023-01-25T21:31:59.838Z,5.78
2023-01-25T21:34:34.881Z,5.77
2023-01-25T21:37:08.652Z,5.75
2023-01-25T21:39:42.828Z,5.59
2023-01-25T21:42:16.214Z,5.71
2023-01-25T21:45:06.707Z,5.58
2023-01-25T21:47:39.405Z,5.68
2023-01-25T21:50:31.141Z,5.67
2023-01-25T21:53:03.548Z,5.64
2023-01-25T21:55:36.012Z,5.65
2023-01-25T21:58:08.785Z,5.68
2023-01-25T22:00:41.166Z,5.67
2023-01-25T22:03:13.816Z,5.69
2023-01-25T22:05:46.722Z,5.70
2023-01-25T22:08:20.274Z,5.67
2023-01-25T22:10:52.831Z,5.69
2023-01-25T22:13:25.277Z,5.70
2023-01-25T22:16:01.275Z,5.71
2023-01-25T22:18:36.437Z,5.71
2023-01-25T22:21:15.218Z,5.73
2023-01-25T22:23:48.262Z,5.75
2023-01-25T22:26:22.426Z,5.77
2023-01-25T22:28:56.404Z,5.77
2023-01-25T22:31:30.478Z,5.75
2023-01-25T22:34:03.506Z,5.77
2023-01-25T22:36:36.152Z,5.78
2023-01-25T22:39:09.076Z,5.79
2023-01-25T22:41:42.333Z,5.79
2023-01-25T22:44:14.849Z,5.81
2023-01-25T22:46:48.275Z,5.80
2023-01-25T22:49:20.897Z,5.81
2023-01-25T22:51:53.235Z,5.81
2023-01-25T22:54:25.689Z,5.82
2023-01-25T22:56:59.022Z,5.82
2023-01-25T22:59:31.460Z,5.83
2023-01-25T23:02:04.559Z,5.83
2023-01-25T23:04:37.491Z,5.83
2023-01-25T23:07:18.928Z,5.85
2023-01-25T23:09:51.754Z,5.84
2023-01-25T23:12:26.050Z,5.83
2023-01-25T23:15:07.505Z,5.82
2023-01-25T23:17:58.066Z,5.84
2023-01-25T23:20:32.800Z,5.79
2023-01-25T23:23:07.081Z,5.78
2023-01-25T23:25:41.107Z,5.73
2023-01-25T23:28:15.127Z,5.69
2023-01-25T23:30:48.446Z,5.65
2023-01-25T23:33:21.487Z,5.56
2023-01-25T23:35:54.052Z,5.65
2023-01-25T23:38:27.329Z,5.67
2023-01-25T23:41:04.242Z,5.65
2023-01-25T23:43:39.049Z,5.60
2023-01-25T23:46:14.625Z,5.61
2023-01-25T23:48:51.482Z,5.59
2023-01-25T23:51:25.310Z,5.55
2023-01-25T23:53:58.996Z,5.55
2023-01-25T23:56:33.094Z,5.54
2023-01-25T23:59:05.894Z,5.51
